シドニー の空港の天気 - METARとTAF

シドニー国際空港 ( YSSY / SYD ) - オーストラリア ニューサウスウェールズ州、Mascot
飛行場実況気象(Metar)
観測時間02/18 01:30 AEDT (02/17 14:30 UTC)
風向・風速北東 5m/s
視程10km以上
天気現象
なし
気温23℃
湿度78%
気圧1010hPa
METARYSSY 171430Z 04009KT CAVOK 23/19 Q1010
過去の天気等 Google飛行場航空写真 Wunderground天気予報

過去48時間のMETAR

飛行場予報(TAF)
発表時間: 2/17 22:07 AEDT (2/17 11:07 UTC)
予報対象時間: 17日23時 AEDT ~ 19日5時 AEDT
風向・風速北 5m/s
視程10km以上
なし
18日12時 AEDT から
風向・風速東北東 6m/s
視程10km以上
なし
18日15時 AEDT から
風向・風速北東 9m/s
視程10km以上
なし
18日23時 AEDT から
風向・風速北北東 4m/s
視程10km以上
なし
TAF YSSY 171107Z 1712/1818 01010KT CAVOK
FM180100 06012KT CAVOK
FM180400 04018KT CAVOK
FM181200 02008KT CAVOK